Hovedside
METAR-TAF:

METAR-TAF

Lufthavner :

The Dalles, Oregon, USA

breddegrad: 45-37-07N, lengdegrad: 121-10-02W, høyde over havet: 75 m

Gjeldene værobservasjon

Denne rapporten ble laget for 36 minutter siden, klokken 16:53 UTC
Flau vind
Temperatur 7°C
Luftfuktighet 70%
Trykk 1028 hPa
Sikt: 16.1 km
Skyfri himmel

METAR: KDLS 171653Z AUTO 00000KT 10SM CLR 07/02 A3035 RMK AO2 SLP277 T00720022

Tid: 10:29 (17:29 UTC)

Varsel

Denne rapporten ble laget for 6 timer og 9 minutter siden, klokken 11:20 UTC
Varsel gyldig fra 17. klokken 12 UTC til 18. klokken 12 UTC
Vind 6 kt fra Øst
Sikt: 10 km
Skyfri himmel

TAF: KDLS 171120Z 1712/1812 09006KT P6SM SKC

Værobservasjoner og værvarsel for over 4000 flyplasser (METAR- og TAF-rapporter).

Tilgjengelige stasjoner er representert av de røde og gule prikkene på kartet.

Hold musepekeren over prikken for å se navnet på stasjonen.

Klikk så for å se værobservasjoner og -varsler.

For å forandre kartet kan du klikke på den grønne knappen med svart kryss for å zoome inn, på den grønne knappen med strek for å zoome ut, eller på de grønne pilene for å se tilstøtende kart.


METAR-TAF: